Time;durP1;ratioP1;P1;durP2;ratioP2;P2;SDS_P1;SDS_P2;PMS_P1;PMS_P2;Temp;Humidity;BMP_temperature;BMP_pressure;BME280_temperature;BME280_humidity;BME280_pressure;Samples;Min_cycle;Max_cycle;Signal;HPM_P1;HPM_P2
2023/06/16 00:00:00;;;;;;;8.27;6.37;;;;;;;13.11;68.20;100107.66;30503508;28;96725;-69
2023/06/16 00:15:02;;;;;;;7.57;6.20;;;;;;;12.86;68.64;100107.16;30502007;28;106135;-71
2023/06/16 00:30:04;;;;;;;10.20;7.00;;;;;;;12.72;69.29;100095.47;30501663;28;96822;-72
2023/06/16 00:45:05;;;;;;;10.43;8.10;;;;;;;12.50;69.61;100074.03;30499276;28;96936;-65
2023/06/16 01:00:07;;;;;;;10.80;7.93;;;;;;;12.42;70.52;100075.97;30497753;28;96712;-73
2023/06/16 01:15:09;;;;;;;13.53;7.23;;;;;;;12.31;70.87;100067.41;30495769;28;96831;-73
2023/06/16 01:30:10;;;;;;;10.87;7.67;;;;;;;12.10;71.04;100052.13;30495279;28;97477;-73
2023/06/16 01:45:13;;;;;;;11.30;7.43;;;;;;;12.09;71.64;100060.34;30495166;28;97050;-70
2023/06/16 02:00:19;;;;;;;11.60;8.50;;;;;;;11.72;71.89;100060.16;30493338;28;96716;-73
2023/06/16 02:15:20;;;;;;;13.43;9.37;;;;;;;11.56;72.52;100046.97;30491002;28;96897;-73
2023/06/16 02:30:21;;;;;;;11.68;8.18;;;;;;;11.37;72.77;100040.28;30491250;28;96960;-73
2023/06/16 02:45:21;;;;;;;12.57;8.57;;;;;;;11.18;73.34;100039.75;30489629;28;96699;-73
2023/06/16 03:00:22;;;;;;;11.57;8.23;;;;;;;11.18;73.57;100056.59;30487848;28;99416;-72
2023/06/16 03:15:23;;;;;;;10.07;7.70;;;;;;;11.15;73.43;100056.94;30489315;28;96734;-65
2023/06/16 03:30:23;;;;;;;12.65;7.93;;;;;;;11.37;74.20;100046.44;30506786;28;96822;-72
2023/06/16 03:45:24;;;;;;;11.27;7.93;;;;;;;11.64;73.43;100046.88;30504052;28;96752;-73
2023/06/16 04:00:25;;;;;;;10.35;8.10;;;;;;;11.88;73.17;100055.66;30502137;28;97152;-71
2023/06/16 04:15:25;;;;;;;9.90;7.83;;;;;;;12.32;73.59;100054.91;30499031;28;97138;-70
2023/06/16 04:30:30;;;;;;;10.93;7.35;;;;;;;13.02;72.95;100052.63;30497569;28;100164;-72
2023/06/16 04:45:30;;;;;;;9.47;6.40;;;;;;;13.79;71.89;100060.97;30498337;28;96635;-71
2023/06/16 05:00:31;;;;;;;8.93;6.40;;;;;;;14.49;70.82;100061.81;30495877;28;96692;-72
2023/06/16 05:15:31;;;;;;;10.02;6.68;;;;;;;15.18;69.14;100060.00;30493447;28;97604;-69
2023/06/16 05:30:31;;;;;;;10.15;6.20;;;;;;;15.87;67.64;100067.94;30490888;28;96894;-66
2023/06/16 05:45:32;;;;;;;15.48;7.32;;;;;;;16.74;66.54;100056.91;30488244;28;112239;-66
2023/06/16 06:00:33;;;;;;;10.30;6.20;;;;;;;17.64;64.12;100068.59;30488083;28;97439;-66
2023/06/16 06:15:33;;;;;;;9.50;4.63;;;;;;;18.47;62.15;100069.28;30485655;28;97886;-74
2023/06/16 06:30:35;;;;;;;;;;;;;;;19.30;58.81;100054.28;30487181;28;97386;-68
2023/06/16 06:45:35;;;;;;;7.38;4.43;;;;;;;19.67;56.36;100061.38;30485391;28;97223;-67
2023/06/16 07:00:36;;;;;;;8.90;4.55;;;;;;;20.82;53.29;100059.06;30501914;28;115573;-67
2023/06/16 07:15:36;;;;;;;20.20;5.97;;;;;;;22.41;50.39;100076.28;30503747;28;107914;-73
2023/06/16 07:30:36;;;;;;;6.93;4.90;;;;;;;22.62;47.00;100070.03;30500578;28;96773;-69
2023/06/16 07:45:37;;;;;;;6.63;4.38;;;;;;;22.99;45.38;100073.94;30502595;28;96722;-68
2023/06/16 08:00:37;;;;;;;6.57;4.68;;;;;;;22.60;44.36;100064.03;30498103;28;97044;-75
2023/06/16 08:15:37;;;;;;;;;;;;;;;22.12;44.56;100068.25;30499858;28;97234;-72
2023/06/16 08:30:38;;;;;;;9.10;5.20;;;;;;;22.25;45.07;100065.19;30498383;28;97172;-70
2023/06/16 08:45:39;;;;;;;8.57;6.05;;;;;;;23.12;43.70;100053.72;30495881;28;97184;-73
2023/06/16 09:00:41;;;;;;;;;;;;;;;23.93;43.05;100039.16;30494400;28;97048;-71
2023/06/16 09:15:42;;;;;;;6.37;4.80;;;;;;;24.60;40.76;100038.66;30492403;28;96730;-69
2023/06/16 09:30:43;;;;;;;5.23;3.67;;;;;;;26.35;37.37;100025.84;30492041;28;97029;-70
2023/06/16 09:45:44;;;;;;;4.30;3.30;;;;;;;27.39;34.75;100017.84;30492005;28;96829;-74
2023/06/16 10:00:44;;;;;;;5.27;3.83;;;;;;;28.74;31.94;100001.56;30489600;28;97335;-75
2023/06/16 10:15:48;;;;;;;4.32;2.47;;;;;;;31.01;28.56;99987.06;30488571;28;97255;-77
2023/06/16 10:30:49;;;;;;;5.27;2.70;;;;;;;30.99;27.09;99988.47;30501762;28;97305;-71
2023/06/16 10:45:49;;;;;;;5.23;4.20;;;;;;;29.61;28.08;99984.78;30509282;28;96879;-79
2023/06/16 11:01:01;;;;;;;5.90;3.22;;;;;;;29.14;28.54;99982.00;30507741;28;97943;-70
2023/06/16 11:16:02;;;;;;;6.90;3.30;;;;;;;28.51;28.28;99973.91;30506307;28;97540;-74
2023/06/16 11:31:07;;;;;;;7.60;2.77;;;;;;;29.23;27.55;99966.50;30503648;28;96690;-71
2023/06/16 11:46:07;;;;;;;6.30;3.73;;;;;;;29.66;27.06;99943.53;30500150;28;96750;-73
2023/06/16 12:01:08;;;;;;;6.20;1.88;;;;;;;26.50;32.01;99940.31;30499885;28;96653;-75
2023/06/16 12:16:11;;;;;;;2.70;1.73;;;;;;;25.95;32.70;99956.63;30499823;28;97289;-74
2023/06/16 12:31:11;;;;;;;3.23;2.60;;;;;;;25.62;34.56;99939.81;30497467;28;97457;-74
2023/06/16 12:46:11;;;;;;;4.53;2.67;;;;;;;25.81;34.92;99936.50;30495566;28;96616;-75
2023/06/16 13:01:12;;;;;;;7.40;3.47;;;;;;;26.62;32.56;99920.81;30495085;28;97381;-76
2023/06/16 13:16:14;;;;;;;6.28;3.47;;;;;;;26.19;32.06;99909.63;30492698;28;97214;-69
2023/06/16 13:31:15;;;;;;;6.70;4.07;;;;;;;26.91;31.75;99886.47;30491723;28;97227;-69
2023/06/16 13:46:16;;;;;;;4.15;3.33;;;;;;;27.48;31.28;99873.09;30488773;28;96937;-70
2023/06/16 14:01:16;;;;;;;12.37;4.00;;;;;;;27.89;31.13;99874.50;30488243;28;96827;-71
2023/06/16 14:16:17;;;;;;;5.75;3.75;;;;;;;27.78;32.15;99876.56;30487684;28;96700;-66
2023/06/16 14:31:19;;;;;;;5.85;3.28;;;;;;;27.92;32.70;99877.44;30481119;28;97464;-72
2023/06/16 14:46:19;;;;;;;6.90;3.73;;;;;;;28.02;32.55;99880.09;30480725;28;96678;-70
2023/06/16 15:01:21;;;;;;;16.75;3.80;;;;;;;28.05;32.87;99878.69;30485573;28;98248;-73
2023/06/16 15:16:21;;;;;;;6.30;3.20;;;;;;;27.79;32.75;99875.44;30369345;28;97507;-73
2023/06/16 15:31:21;;;;;;;5.68;3.08;;;;;;;26.42;33.80;99875.34;30375654;28;100711;-71
2023/06/16 15:46:22;;;;;;;6.47;2.92;;;;;;;24.52;37.29;99895.69;30444709;28;97957;-70
2023/06/16 16:01:22;;;;;;;4.53;3.40;;;;;;;23.66;39.35;99909.53;30498960;28;96860;-71
2023/06/16 16:16:23;;;;;;;6.60;3.75;;;;;;;22.77;40.49;99908.34;30495819;28;96793;-70
2023/06/16 16:31:23;;;;;;;6.90;4.00;;;;;;;22.47;41.91;99912.41;30496181;28;97387;-71
2023/06/16 16:46:24;;;;;;;5.60;3.67;;;;;;;22.09;42.98;99909.53;30492804;28;97855;-71
2023/06/16 17:01:24;;;;;;;4.60;3.00;;;;;;;21.72;43.84;99899.34;30494246;28;96701;-69
2023/06/16 17:16:25;;;;;;;7.23;3.40;;;;;;;21.30;44.27;99887.06;30493078;28;96713;-69
2023/06/16 17:31:25;;;;;;;4.72;3.10;;;;;;;20.72;45.31;99886.47;30487559;28;97509;-69
2023/06/16 17:46:25;;;;;;;4.40;2.93;;;;;;;20.12;47.11;99879.66;30489458;28;104999;-68
2023/06/16 18:01:26;;;;;;;5.40;3.53;;;;;;;19.53;48.57;99893.28;30479036;28;97109;-73
2023/06/16 18:16:26;;;;;;;6.80;3.78;;;;;;;19.01;50.25;99896.69;30359543;28;97669;-70
2023/06/16 18:31:26;;;;;;;8.55;4.55;;;;;;;18.41;52.41;99909.16;30436847;28;112916;-76
2023/06/16 18:46:27;;;;;;;6.18;4.32;;;;;;;17.73;54.61;99913.75;30483549;28;97645;-77
2023/06/16 19:01:27;;;;;;;9.13;4.43;;;;;;;17.34;55.96;99913.09;30497145;28;99199;-76
2023/06/16 19:16:27;;;;;;;8.68;5.00;;;;;;;17.00;57.09;99934.88;30497856;28;97289;-77
2023/06/16 19:31:29;;;;;;;7.35;5.13;;;;;;;16.56;58.31;99945.50;30497602;28;97155;-77
2023/06/16 19:46:29;;;;;;;7.23;4.50;;;;;;;16.36;59.69;99956.38;30489317;28;96895;-72
2023/06/16 20:01:30;;;;;;;8.07;5.22;;;;;;;16.12;61.00;99968.66;30503785;28;96668;-71
2023/06/16 20:16:30;;;;;;;12.32;6.70;;;;;;;15.90;61.98;99973.50;30502679;28;97249;-76
2023/06/16 20:31:31;;;;;;;11.15;6.47;;;;;;;15.68;62.73;99967.53;30501133;28;96700;-73
2023/06/16 20:46:32;;;;;;;7.37;5.90;;;;;;;15.48;64.12;99962.97;30498703;28;96639;-75
2023/06/16 21:01:39;;;;;;;10.10;7.43;;;;;;;15.28;65.77;99957.66;30497998;28;97272;-74
2023/06/16 21:16:40;;;;;;;10.17;7.80;;;;;;;15.13;67.48;99951.63;30494570;28;96856;-74
2023/06/16 21:31:40;;;;;;;10.50;7.25;;;;;;;15.04;68.68;99948.34;30495490;28;96618;-76
2023/06/16 21:46:40;;;;;;;10.02;6.72;;;;;;;14.96;69.75;99943.19;30495198;28;113151;-75
2023/06/16 22:01:40;;;;;;;10.00;6.88;;;;;;;14.85;70.20;99953.47;30493860;28;97507;-68
2023/06/16 22:16:41;;;;;;;9.07;7.93;;;;;;;14.65;70.89;99952.59;30492487;28;96653;-70
2023/06/16 22:31:42;;;;;;;9.80;7.18;;;;;;;14.44;71.94;99946.34;30513583;28;96836;-74
2023/06/16 22:46:42;;;;;;;12.77;7.55;;;;;;;14.25;72.85;99925.69;30511566;28;96717;-75
2023/06/16 23:01:43;;;;;;;11.10;7.10;;;;;;;14.01;73.42;99917.13;30510469;28;98138;-73
2023/06/16 23:16:43;;;;;;;8.10;6.63;;;;;;;13.93;73.96;99911.94;30508647;28;97499;-75
2023/06/16 23:31:45;;;;;;;11.68;8.07;;;;;;;13.80;74.76;99913.53;30506998;28;97188;-76
2023/06/16 23:46:45;;;;;;;10.67;7.70;;;;;;;13.69;74.94;99908.72;30505791;28;96695;-74
